Skip Navigation Links Skip Navigation Links

Current Weather

Hamilton Airport, Ont.

For information only: do not use for flight planning or navigation.
Latest weather
Observation time Friday, January 21, 2022 3:00 PM EST
Local time Friday, January 21, 2022 3:36 PM EST
Flight conditions Marginal Visual Meteorological Conditions
Winds
Wind speed calm
Visibility 3 mi.
Present weather light snow
Sky condition
Ceiling 2,800 ft. broken clouds
Cloud layer scattered clouds 1,400 ft.
Cloud layer broken clouds 2,800 ft.
Temperature 12°F
Dewpoint 5°F
Altimeter 30.58 in.Hg
Derived measurements
Relative humidity 72%
Wind chill 12°F
Density altitude -3751 ft.
Sea-level pressure 30.65 in.Hg
METAR CYHM 212000Z 00000KT 3SM -SN SCT014 BKN028 M11/M15 A3058 RMK SC3SC4 SLP379

Settings

Location code

InnerDrive.Weather 4.0.6770.0 Release CLR 4.0.30319.42000
Copyright ©2018 Inner Drive Technology. All rights reserved. Portions Copyright ©1986-2018 David Braverman.

Find weather

Site navigation


Skip Navigation Links

Place info

Page info

PayPal - The safer, easier way to pay online!

Return home.

Copyright ©2022 Inner Drive Technology. Purveyors of fine, hand-crafted computer software. Page printed 2022-01-21T20:36:22 UTC.